Time;durP1;ratioP1;P1;durP2;ratioP2;P2;SDS_P1;SDS_P2;PMS_P1;PMS_P2;Temp;Humidity;BMP_temperature;BMP_pressure;BME280_temperature;BME280_humidity;BME280_pressure;Samples;Min_cycle;Max_cycle;Signal;HPM_P1;HPM_P2
2023/08/24 00:01:54;;;;;;;18.38;13.90;;;;;;;-141.97;49.63;47102.03;5032584;28;20170;-84
2023/08/24 00:04:20;;;;;;;21.37;14.37;;;;;;;-141.97;50.35;47299.97;5033615;28;20174;-85
2023/08/24 00:06:45;;;;;;;21.83;14.73;;;;;;;-141.97;50.02;47319.19;5048324;28;20192;-85
2023/08/24 00:09:11;;;;;;;19.47;14.33;;;;;;;-141.97;49.89;47307.66;5040498;28;20188;-85
2023/08/24 00:11:37;;;;;;;19.27;14.40;;;;;;;-141.97;49.65;47311.50;5040762;28;20179;-82
2023/08/24 00:14:02;;;;;;;20.37;14.13;;;;;;;-141.97;50.04;47167.38;5053609;28;20154;-83
2023/08/24 00:16:28;;;;;;;22.20;14.60;;;;;;;-141.97;49.79;47355.72;5043430;28;20189;-83
2023/08/24 00:18:53;;;;;;;19.77;14.10;;;;;;;-141.97;49.86;47334.56;5033727;28;20173;-82
2023/08/24 00:21:22;;;;;;;19.20;14.00;;;;;;;-141.97;49.54;47165.44;5046000;28;20177;-82
2023/08/24 00:23:48;;;;;;;19.70;13.80;;;;;;;-141.97;49.90;47323.03;5041139;28;20162;-83
2023/08/24 00:26:16;;;;;;;18.50;14.27;;;;;;;-141.97;49.60;47332.66;5032446;28;20182;-83
2023/08/24 00:28:42;;;;;;;20.30;13.97;;;;;;;-141.97;50.26;47053.97;5033389;28;20582;-83
2023/08/24 00:31:07;;;;;;;19.50;14.10;;;;;;;-141.97;50.10;47200.03;5032800;28;20174;-83
2023/08/24 00:33:32;;;;;;;17.58;14.45;;;;;;;-141.97;49.97;47050.13;5049467;28;20166;-83
2023/08/24 00:36:02;;;;;;;21.83;14.30;;;;;;;-141.97;50.25;47365.31;5031277;28;20281;-83
2023/08/24 00:38:27;;;;;;;21.60;15.17;;;;;;;-141.97;50.24;47349.94;5034101;28;20185;-83
2023/08/24 00:40:53;;;;;;;19.83;14.80;;;;;;;-141.97;50.25;47369.16;5034053;28;20569;-83
2023/08/24 00:43:23;;;;;;;19.00;14.97;;;;;;;-141.97;50.46;47319.19;5032155;28;20181;-84
2023/08/24 00:45:51;;;;;;;19.70;14.10;;;;;;;-141.97;50.81;47351.88;5033419;28;20198;-83
2023/08/24 00:48:17;;;;;;;19.77;13.83;;;;;;;-141.97;51.47;47348.03;5032607;28;20170;-83
2023/08/24 00:50:42;;;;;;;24.23;14.67;;;;;;;-141.97;52.31;47311.50;5032660;28;20647;-84
2023/08/24 00:53:07;;;;;;;18.50;13.83;;;;;;;-141.97;53.33;47326.88;5032497;28;20197;-83
2023/08/24 00:55:33;;;;;;;19.20;14.17;;;;;;;-141.97;53.14;47349.94;5032670;28;20229;-84
2023/08/24 00:57:59;;;;;;;19.27;14.33;;;;;;;-141.97;52.17;47334.56;5032329;28;20269;-83
2023/08/24 01:00:25;;;;;;;18.53;13.77;;;;;;;-141.97;51.56;47336.50;5032500;28;20167;-83
2023/08/24 01:02:50;;;;;;;18.47;13.90;;;;;;;-141.97;50.81;47353.78;5033328;28;20182;-84
2023/08/24 01:05:15;;;;;;;19.40;14.30;;;;;;;-141.97;51.47;47357.63;5032497;28;20194;-84
2023/08/24 01:07:41;;;;;;;17.10;13.90;;;;;;;-141.97;50.51;47361.47;5032747;28;20253;-83
2023/08/24 01:10:09;;;;;;;16.57;14.03;;;;;;;-141.97;50.37;47353.78;5032691;28;20211;-84
2023/08/24 01:12:59;;;;;;;20.60;13.80;;;;;;;-141.97;49.94;47351.88;5032425;28;20174;-85
2023/08/24 01:15:47;;;;;;;21.10;13.60;;;;;;;-141.97;50.17;47373.00;5032757;28;20691;-85
2023/08/24 01:18:16;;;;;;;18.33;13.53;;;;;;;-141.97;50.25;47346.09;5030680;28;20208;-85
2023/08/24 01:20:43;;;;;;;19.03;13.40;;;;;;;-141.97;50.81;47359.56;5032343;28;20657;-84
2023/08/24 01:23:32;;;;;;;19.07;13.87;;;;;;;-141.97;51.61;47355.72;5030252;28;20174;-85
2023/08/24 01:26:10;;;;;;;20.40;14.10;;;;;;;-141.97;51.99;47376.84;5012502;28;20186;-84
2023/08/24 01:28:36;;;;;;;18.70;13.50;;;;;;;-141.97;52.62;47361.47;5025162;28;20707;-85
2023/08/24 01:31:04;;;;;;;19.17;13.37;;;;;;;-141.97;52.37;47351.88;5032400;28;20173;-85
2023/08/24 01:33:30;;;;;;;18.10;13.53;;;;;;;-141.97;52.49;47015.53;5032065;28;20257;-84
2023/08/24 01:35:55;;;;;;;16.37;13.17;;;;;;;-141.97;52.78;47388.38;5037555;28;20662;-81
2023/08/24 01:38:20;;;;;;;18.83;13.87;;;;;;;-141.97;53.76;47373.00;5041536;28;20242;-82
2023/08/24 01:41:13;;;;;;;17.00;13.60;;;;;;;-141.97;54.37;47371.09;5032187;28;20222;-82
2023/08/24 01:43:40;;;;;;;17.87;13.90;;;;;;;-141.97;54.60;47369.16;5010931;28;20190;-82
2023/08/24 01:46:07;;;;;;;17.83;13.67;;;;;;;-141.97;54.22;47376.84;5017875;28;20222;-82
2023/08/24 01:48:33;;;;;;;18.87;13.70;;;;;;;-141.97;54.59;47365.31;5031449;28;20289;-81
2023/08/24 01:51:00;;;;;;;19.13;13.53;;;;;;;-141.97;54.33;47384.53;5031932;28;20169;-82
2023/08/24 01:53:28;;;;;;;19.40;14.07;;;;;;;-141.97;53.99;47490.25;5031889;28;20634;-82
2023/08/24 01:55:53;;;;;;;20.13;14.03;;;;;;;-141.97;53.58;47353.78;5031974;28;20182;-83
2023/08/24 01:58:19;;;;;;;19.37;13.67;;;;;;;-141.97;53.74;47298.06;5031253;28;20236;-83
2023/08/24 02:00:44;;;;;;;19.17;13.60;;;;;;;-141.97;53.99;47434.50;5031558;28;20622;-83
2023/08/24 02:03:09;;;;;;;24.73;13.67;;;;;;;-141.97;53.86;47353.78;5031734;28;20546;-83
2023/08/24 02:05:35;;;;;;;19.90;14.17;;;;;;;-141.97;53.69;47353.78;5031410;28;20514;-83
2023/08/24 02:08:00;;;;;;;19.57;14.03;;;;;;;-141.97;53.79;47207.72;5031205;28;20170;-83
2023/08/24 02:10:26;;;;;;;20.30;14.30;;;;;;;-141.97;53.99;47580.59;5032493;28;20227;-83
2023/08/24 02:12:51;;;;;;;18.40;14.80;;;;;;;-141.97;54.16;47371.09;5051251;28;20173;-83
2023/08/24 02:15:17;;;;;;;20.47;15.03;;;;;;;-141.97;55.17;47595.97;5051266;28;20244;-83
2023/08/24 02:17:43;;;;;;;20.73;14.53;;;;;;;-141.97;55.61;47357.63;5050682;28;20172;-82
2023/08/24 02:20:11;;;;;;;18.80;14.07;;;;;;;-141.97;55.50;47455.66;5051335;28;20169;-83
2023/08/24 02:22:37;;;;;;;19.23;13.80;;;;;;;-141.97;55.05;47359.56;5039459;28;20208;-82
2023/08/24 02:25:04;;;;;;;21.83;14.23;;;;;;;-141.97;54.74;47301.91;5030721;28;20194;-84
2023/08/24 02:27:30;;;;;;;18.43;13.93;;;;;;;-141.97;54.89;47376.84;5030270;28;20196;-81
2023/08/24 02:29:55;;;;;;;18.83;14.23;;;;;;;-141.97;54.97;47390.31;5030758;28;20181;-83
2023/08/24 02:32:21;;;;;;;19.50;14.07;;;;;;;-141.97;55.01;47384.53;5030948;28;20175;-82
2023/08/24 02:34:46;;;;;;;18.63;14.43;;;;;;;-141.97;55.70;47313.44;5030894;28;20170;-82
2023/08/24 02:37:11;;;;;;;19.50;14.23;;;;;;;-141.97;56.00;47549.84;5030843;28;20289;-82
2023/08/24 02:39:37;;;;;;;18.53;14.10;;;;;;;-141.97;55.83;47284.59;5031805;28;20246;-82
2023/08/24 02:42:02;;;;;;;18.53;14.00;;;;;;;-141.97;56.05;47344.19;5031206;28;20682;-83
2023/08/24 02:44:28;;;;;;;20.53;14.07;;;;;;;-141.97;55.99;47599.81;5032116;28;20530;-84
2023/08/24 02:46:54;;;;;;;20.93;15.90;;;;;;;-141.97;55.63;47176.97;5033179;28;20464;-83
2023/08/24 02:49:20;;;;;;;18.53;14.73;;;;;;;-141.97;55.96;47407.59;5049223;28;20181;-83
2023/08/24 02:51:46;;;;;;;19.23;15.23;;;;;;;-141.97;56.20;47369.16;5050961;28;20513;-83
2023/08/24 02:54:11;;;;;;;18.67;14.63;;;;;;;-141.97;56.30;47403.75;5037109;28;20173;-83
2023/08/24 02:56:37;;;;;;;19.60;14.57;;;;;;;-141.97;56.40;47294.22;5050308;28;20185;-83
2023/08/24 02:59:02;;;;;;;17.50;14.67;;;;;;;-141.97;56.29;47353.78;5061634;28;20185;-84
2023/08/24 03:01:27;;;;;;;20.80;15.83;;;;;;;-141.97;56.66;47265.38;5039487;28;20253;-83
2023/08/24 03:03:53;;;;;;;22.07;15.30;;;;;;;-141.97;56.87;47238.47;5030836;28;20174;-84
2023/08/24 03:06:18;;;;;;;19.57;15.03;;;;;;;-141.97;56.94;47357.63;5030815;28;20189;-84
2023/08/24 03:08:44;;;;;;;21.80;15.13;;;;;;;-141.97;56.97;47390.31;5030948;28;20170;-81
2023/08/24 03:11:09;;;;;;;22.87;15.23;;;;;;;-141.97;57.43;47109.72;5030810;28;20162;-82
2023/08/24 03:13:37;;;;;;;20.23;14.27;;;;;;;-141.97;57.03;47357.63;5030472;28;20162;-82
2023/08/24 03:16:04;;;;;;;20.20;14.97;;;;;;;-141.97;57.43;47405.69;5030552;28;20166;-81
2023/08/24 03:18:30;;;;;;;19.23;15.20;;;;;;;-141.97;57.35;47622.88;5030983;28;20181;-83
2023/08/24 03:20:55;;;;;;;19.47;14.90;;;;;;;-141.97;57.63;47196.19;5025986;28;20181;-83
2023/08/24 03:23:21;;;;;;;21.80;15.07;;;;;;;-141.97;58.11;47534.44;5029771;28;20637;-83
2023/08/24 03:25:47;;;;;;;19.23;14.03;;;;;;;-141.97;57.89;47584.44;5031509;28;20190;-83
2023/08/24 03:28:13;;;;;;;18.63;14.27;;;;;;;-141.97;57.81;47167.38;5034158;28;20244;-83
2023/08/24 03:30:46;;;;;;;21.37;14.07;;;;;;;-141.97;57.83;47401.84;5035432;28;20192;-82
2023/08/24 03:33:11;;;;;;;20.00;14.17;;;;;;;-141.97;58.34;47415.28;5034178;28;20182;-82
2023/08/24 03:35:37;;;;;;;24.73;14.67;;;;;;;-141.97;58.91;47323.03;5034578;28;20166;-83
2023/08/24 03:38:03;;;;;;;24.87;15.20;;;;;;;-141.97;58.72;47411.44;5034321;28;20211;-82
2023/08/24 03:40:29;;;;;;;26.10;15.10;;;;;;;-141.97;58.64;47398.00;5033497;28;20249;-82
2023/08/24 03:42:54;;;;;;;26.67;15.00;;;;;;;-141.97;58.47;47346.09;5033372;28;20359;-82
2023/08/24 03:45:21;;;;;;;23.97;15.87;;;;;;;-141.97;58.40;47390.31;5032184;28;20225;-82
2023/08/24 03:47:46;;;;;;;25.03;15.13;;;;;;;-141.97;58.74;47398.00;5029979;28;20193;-83
2023/08/24 03:50:12;;;;;;;29.90;15.30;;;;;;;-141.97;58.75;47334.56;5020512;28;20226;-83
2023/08/24 03:52:39;;;;;;;18.87;15.30;;;;;;;-141.97;58.96;47580.59;5035670;28;20284;-83
2023/08/24 03:55:06;;;;;;;20.23;15.07;;;;;;;-141.97;59.08;47417.22;5034126;28;20223;-83
2023/08/24 03:57:31;;;;;;;28.47;19.67;;;;;;;-141.97;58.85;47626.72;5049239;28;20188;-82
2023/08/24 03:59:57;;;;;;;27.53;18.60;;;;;;;-141.97;58.86;47480.63;5032913;28;20172;-82
2023/08/24 04:02:23;;;;;;;22.20;16.37;;;;;;;-141.97;59.40;47546.00;5033953;28;20174;-81
2023/08/24 04:04:49;;;;;;;24.70;15.13;;;;;;;-141.97;58.33;47409.53;5034039;28;20289;-83
2023/08/24 04:07:14;;;;;;;21.70;14.83;;;;;;;-141.97;57.56;47365.31;5034123;28;20185;-83
2023/08/24 04:09:40;;;;;;;23.87;14.37;;;;;;;-141.97;57.20;47303.81;5033539;28;20170;-83
2023/08/24 04:12:05;;;;;;;20.47;14.20;;;;;;;-141.97;57.04;47403.75;5032837;28;20213;-84
2023/08/24 04:14:31;;;;;;;21.00;15.47;;;;;;;-141.97;57.00;47332.66;5033932;28;20216;-83
2023/08/24 04:16:56;;;;;;;22.50;15.97;;;;;;;-141.97;57.87;47428.75;5033702;28;20170;-83
2023/08/24 04:19:22;;;;;;;20.50;16.27;;;;;;;-141.97;58.50;47428.75;5033731;28;20171;-82
2023/08/24 04:21:47;;;;;;;19.60;14.43;;;;;;;-141.97;58.09;47380.69;5030425;28;20178;-82
2023/08/24 04:24:12;;;;;;;19.43;15.67;;;;;;;-141.97;58.17;47378.78;5033448;28;20259;-83
2023/08/24 04:26:38;;;;;;;20.20;15.87;;;;;;;-141.97;57.59;47419.13;5033454;28;20189;-84
2023/08/24 04:29:03;;;;;;;24.30;18.47;;;;;;;-141.97;57.26;47394.16;5033402;28;20170;-83
2023/08/24 04:31:29;;;;;;;22.80;16.57;;;;;;;-141.97;56.49;47284.59;5033368;28;20241;-83
2023/08/24 04:33:54;;;;;;;24.00;16.77;;;;;;;-141.97;56.18;47294.22;5032759;28;20174;-83
2023/08/24 04:36:19;;;;;;;21.87;14.80;;;;;;;-141.97;55.96;47403.75;5033186;28;20173;-83
2023/08/24 04:38:45;;;;;;;17.97;14.30;;;;;;;-141.97;55.51;47407.59;5033240;28;20303;-84
2023/08/24 04:41:12;;;;;;;22.10;15.00;;;;;;;-141.97;55.13;47399.91;5032850;28;20232;-82
2023/08/24 04:43:38;;;;;;;22.60;14.77;;;;;;;-141.97;54.90;47403.75;5031382;28;20174;-84
2023/08/24 04:46:03;;;;;;;18.07;13.83;;;;;;;-141.97;54.15;47592.13;5041216;28;20533;-82
2023/08/24 04:48:34;;;;;;;19.77;13.97;;;;;;;-141.97;53.89;47522.91;5053908;28;20327;-84
2023/08/24 04:51:00;;;;;;;20.83;14.07;;;;;;;-141.97;53.50;47357.63;5054877;28;20590;-84
2023/08/24 04:53:26;;;;;;;27.90;14.40;;;;;;;-141.97;53.24;47413.38;5016702;28;20236;-84
2023/08/24 04:55:51;;;;;;;23.47;14.27;;;;;;;-141.97;53.48;47330.72;5033090;28;20178;-83
2023/08/24 04:58:17;;;;;;;18.80;13.63;;;;;;;-141.97;53.35;47369.16;5032623;28;20236;-82
2023/08/24 05:00:43;;;;;;;17.50;13.07;;;;;;;-141.97;53.01;47411.44;5032883;28;20173;-83
2023/08/24 05:03:08;;;;;;;17.20;13.67;;;;;;;-141.97;52.54;47355.72;5032647;28;20166;-82
2023/08/24 05:05:35;;;;;;;21.70;14.23;;;;;;;-141.97;52.51;47380.69;5032692;28;20201;-82
2023/08/24 05:08:02;;;;;;;17.60;13.53;;;;;;;-141.97;51.47;47384.53;5032657;28;20245;-82
2023/08/24 05:10:32;;;;;;;20.13;15.30;;;;;;;-141.97;51.44;47374.94;5032146;28;20166;-83
2023/08/24 05:12:58;;;;;;;17.57;13.60;;;;;;;-141.97;51.45;47396.06;5032572;28;20162;-81
2023/08/24 05:15:23;;;;;;;19.03;13.03;;;;;;;-141.97;52.49;47269.22;5032886;28;20174;-81
2023/08/24 05:17:50;;;;;;;16.80;13.30;;;;;;;-141.97;52.03;47373.00;5032664;28;20285;-82
2023/08/24 05:20:15;;;;;;;17.60;12.93;;;;;;;-141.97;51.67;47307.66;5032046;28;20166;-82
2023/08/24 05:22:41;;;;;;;23.40;13.93;;;;;;;-141.97;50.64;47367.25;5031147;28;20182;-82
2023/08/24 05:25:07;;;;;;;18.30;13.10;;;;;;;-141.97;50.28;47361.47;5031979;28;20198;-81
2023/08/24 05:27:32;;;;;;;16.43;12.77;;;;;;;-141.97;49.98;47380.69;5044565;28;20245;-82
2023/08/24 05:29:58;;;;;;;19.17;13.20;;;;;;;-141.97;50.48;47561.38;5038311;28;20213;-83
2023/08/24 05:32:24;;;;;;;22.67;14.23;;;;;;;-141.97;49.34;47376.84;5039316;28;20178;-85
2023/08/24 05:34:50;;;;;;;20.58;13.68;;;;;;;-141.97;48.78;47323.03;5051718;28;20162;-82
2023/08/24 05:37:15;;;;;;;18.20;13.25;;;;;;;-141.97;49.14;47357.63;5039384;28;20162;-84
2023/08/24 05:39:41;;;;;;;18.35;12.90;;;;;;;-141.97;48.65;47336.50;5032202;28;20647;-83
2023/08/24 05:42:08;;;;;;;18.92;14.73;;;;;;;-141.97;48.47;47365.31;5031952;28;20800;-85
2023/08/24 05:44:34;;;;;;;22.48;14.00;;;;;;;-141.97;48.17;47311.50;5032085;28;20188;-84
2023/08/24 05:46:59;;;;;;;21.05;15.25;;;;;;;-141.97;48.34;47190.44;5030796;28;20551;-84
2023/08/24 05:49:26;;;;;;;20.15;12.98;;;;;;;-141.97;48.01;47134.69;5032123;28;20204;-84
2023/08/24 05:51:52;;;;;;;24.05;14.93;;;;;;;-141.97;48.21;47363.41;5030953;28;20173;-83
2023/08/24 05:54:18;;;;;;;15.60;12.85;;;;;;;-141.97;47.98;47346.09;5022082;28;20315;-83
2023/08/24 05:56:47;;;;;;;19.55;12.90;;;;;;;-141.97;48.60;47526.75;5025750;28;20172;-83
2023/08/24 05:59:15;;;;;;;19.15;13.02;;;;;;;-141.97;48.57;47313.44;5011853;28;20172;-82
2023/08/24 06:01:41;;;;;;;23.38;15.13;;;;;;;-141.97;48.15;47540.22;5012440;28;20162;-84
2023/08/24 06:04:08;;;;;;;21.23;12.90;;;;;;;-141.97;47.46;47469.09;5018807;28;20671;-82
2023/08/24 06:06:34;;;;;;;17.13;12.27;;;;;;;-141.97;47.48;47338.41;5030258;28;20271;-83
2023/08/24 06:08:59;;;;;;;17.65;12.73;;;;;;;-141.97;46.92;47482.56;5031374;28;20176;-83
2023/08/24 06:11:24;;;;;;;17.83;12.48;;;;;;;-141.97;46.67;47242.31;5031612;28;20269;-82
2023/08/24 06:13:52;;;;;;;17.75;13.00;;;;;;;-141.97;46.53;47432.59;5030409;28;20651;-82
2023/08/24 06:16:17;;;;;;;19.33;13.32;;;;;;;-141.97;46.79;47353.78;5030564;28;20168;-83
2023/08/24 06:18:42;;;;;;;20.13;13.82;;;;;;;-141.97;46.82;47253.84;5030128;28;20165;-81
2023/08/24 06:21:08;;;;;;;23.58;15.88;;;;;;;-141.97;46.50;47311.50;5031407;28;20654;-81
2023/08/24 06:23:33;;;;;;;20.63;15.05;;;;;;;-141.97;46.12;47609.41;5030792;28;20550;-81
2023/08/24 06:25:59;;;;;;;21.10;14.07;;;;;;;-141.97;45.61;47342.25;5025916;28;20236;-83
2023/08/24 06:28:36;;;;;;;16.55;13.20;;;;;;;-141.97;45.44;47323.03;5030361;28;20180;-82
2023/08/24 06:31:04;;;;;;;16.65;13.30;;;;;;;-141.97;45.01;47073.19;5029274;28;20206;-83
2023/08/24 06:33:36;;;;;;;17.80;13.63;;;;;;;-141.97;45.72;47121.25;5028301;28;20275;-81
2023/08/24 06:36:05;;;;;;;20.17;13.43;;;;;;;-141.97;46.45;47403.75;5048300;28;20359;-81
2023/08/24 06:38:31;;;;;;;22.58;13.38;;;;;;;-141.97;47.56;47336.50;5047918;28;20231;-80
2023/08/24 06:40:58;;;;;;;18.83;13.30;;;;;;;-141.97;47.22;47369.16;5047692;28;20361;-79
2023/08/24 06:43:23;;;;;;;18.55;13.38;;;;;;;-141.97;46.79;47315.34;5046526;28;20180;-77
2023/08/24 06:45:48;;;;;;;24.73;14.13;;;;;;;-141.97;46.71;47359.56;5046374;28;20205;-77
2023/08/24 06:48:14;;;;;;;24.73;13.35;;;;;;;-141.97;46.16;47547.91;5030953;28;20596;-77
2023/08/24 06:50:39;;;;;;;20.40;12.32;;;;;;;-141.97;46.28;47273.06;5027268;28;20665;-78
2023/08/24 06:53:05;;;;;;;31.50;13.82;;;;;;;-141.97;47.85;47361.47;5026577;28;20193;-78
2023/08/24 06:55:30;;;;;;;25.02;13.05;;;;;;;-141.97;48.40;47330.72;5017237;28;20634;-77
2023/08/24 06:57:56;;;;;;;22.73;14.23;;;;;;;-141.97;48.80;47403.75;5027818;28;20208;-77
2023/08/24 07:00:22;;;;;;;22.38;13.32;;;;;;;-141.97;49.19;47346.09;5028878;28;20158;-79
2023/08/24 07:02:51;;;;;;;22.60;13.00;;;;;;;-141.97;48.90;47351.88;5029705;28;20543;-78
2023/08/24 07:05:20;;;;;;;23.77;13.55;;;;;;;-141.97;56.10;47403.75;5033575;28;20289;-77
2023/08/24 07:07:47;;;;;;;33.17;15.20;;;;;;;-141.97;64.31;47422.97;5034343;28;20154;-81
2023/08/24 07:10:12;;;;;;;36.03;16.87;;;;;;;-141.97;72.35;47457.56;5034639;28;20157;-84
2023/08/24 07:12:41;;;;;;;27.43;15.73;;;;;;;-141.97;74.05;47398.00;5049880;28;20170;-82
2023/08/24 07:15:07;;;;;;;32.47;16.60;;;;;;;-141.97;78.50;47544.06;5027696;28;20177;-82
2023/08/24 07:17:33;;;;;;;22.60;15.17;;;;;;;-141.97;79.38;47411.44;5034254;28;20197;-81
2023/08/24 07:19:58;;;;;;;22.97;14.07;;;;;;;-141.97;78.21;47426.81;5033408;28;20170;-83
2023/08/24 07:22:26;;;;;;;17.47;11.13;;;;;;;-141.97;77.71;47434.50;5033466;28;20253;-81
2023/08/24 07:24:52;;;;;;;16.73;10.30;;;;;;;-141.97;76.95;47422.97;5033192;28;20618;-81
2023/08/24 07:27:18;;;;;;;12.67;8.57;;;;;;;-141.97;73.40;47453.72;5022712;28;20238;-85
2023/08/24 07:29:44;;;;;;;11.90;7.90;;;;;;;-141.97;68.85;47392.22;5032027;28;20186;-86
2023/08/24 07:32:09;;;;;;;11.70;7.93;;;;;;;-141.97;66.60;47413.38;5033819;28;20251;-85
2023/08/24 07:34:35;;;;;;;13.47;8.97;;;;;;;-141.97;65.96;47411.44;5033775;28;20201;-85
2023/08/24 07:37:00;;;;;;;13.47;8.97;;;;;;;-141.97;63.05;47359.56;5033435;28;20154;-85
2023/08/24 07:39:26;;;;;;;12.33;8.33;;;;;;;-141.97;63.07;47419.13;5033540;28;20212;-85
2023/08/24 07:41:51;;;;;;;11.77;9.80;;;;;;;-141.97;62.74;47411.44;5032716;28;20325;-86
2023/08/24 07:44:16;;;;;;;14.63;9.70;;;;;;;-141.97;61.73;47396.06;5032611;28;20672;-84
2023/08/24 07:46:42;;;;;;;14.73;10.20;;;;;;;-141.97;61.97;47388.38;5033235;28;20206;-83
2023/08/24 07:49:07;;;;;;;20.90;11.27;;;;;;;-141.97;62.27;47346.09;5032834;28;20169;-85
2023/08/24 07:51:33;;;;;;;19.83;11.88;;;;;;;-141.97;58.98;47323.03;5032579;28;20583;-85
2023/08/24 07:53:59;;;;;;;16.42;9.95;;;;;;;-141.97;56.93;47353.78;5024940;28;20201;-84
2023/08/24 07:56:25;;;;;;;16.85;9.80;;;;;;;-141.97;55.03;47348.03;5053047;28;20227;-85
2023/08/24 07:58:50;;;;;;;12.52;10.07;;;;;;;-141.97;53.76;47346.09;5052047;28;20170;-85
2023/08/24 08:01:15;;;;;;;14.43;10.45;;;;;;;-141.97;53.25;47298.06;5031470;28;20275;-84
2023/08/24 08:03:41;;;;;;;14.80;10.93;;;;;;;-141.97;50.02;47275.00;5030744;28;20297;-85
2023/08/24 08:06:06;;;;;;;14.30;11.05;;;;;;;-141.97;50.87;47248.09;5031407;28;20688;-84
2023/08/24 08:08:31;;;;;;;13.60;10.55;;;;;;;-141.97;48.12;47282.69;5042888;28;20204;-83
2023/08/24 08:10:59;;;;;;;17.58;12.10;;;;;;;-141.97;49.62;47276.91;5049983;28;20180;-83
2023/08/24 08:13:25;;;;;;;18.15;12.18;;;;;;;-141.97;49.71;47263.47;5035276;28;20199;-83
2023/08/24 08:15:50;;;;;;;14.55;10.80;;;;;;;-141.97;49.43;47273.06;5031780;28;20165;-82
2023/08/24 08:18:16;;;;;;;12.98;10.20;;;;;;;-141.97;49.71;47269.22;5033134;28;20177;-81
2023/08/24 08:20:41;;;;;;;11.63;9.43;;;;;;;-141.97;47.46;47276.91;5032294;28;20172;-85
2023/08/24 08:23:06;;;;;;;14.05;10.15;;;;;;;-141.97;46.71;47261.53;5033016;28;20191;-84
2023/08/24 08:25:32;;;;;;;10.38;9.20;;;;;;;-141.97;45.73;47255.78;5031395;28;20646;-85
2023/08/24 08:27:57;;;;;;;12.95;9.60;;;;;;;-141.97;44.34;47207.72;5031698;28;20186;-83
2023/08/24 08:30:23;;;;;;;10.45;9.35;;;;;;;-141.97;42.87;47225.03;5032665;28;20181;-84
2023/08/24 08:32:50;;;;;;;13.82;9.65;;;;;;;-141.97;44.91;47226.94;5033396;28;20525;-82
2023/08/24 08:35:16;;;;;;;11.48;9.30;;;;;;;-141.97;45.92;47275.00;5044400;28;20184;-84
2023/08/24 08:37:41;;;;;;;10.98;9.10;;;;;;;-141.97;44.21;47234.63;5052932;28;20161;-84
2023/08/24 08:40:09;;;;;;;12.45;9.50;;;;;;;-141.97;44.21;47173.13;5052739;28;20213;-86
2023/08/24 08:42:35;;;;;;;12.07;10.77;;;;;;;-141.97;44.76;47250.00;5051328;28;20187;-86
2023/08/24 08:45:04;;;;;;;17.67;10.82;;;;;;;-141.97;45.29;47494.09;5054950;28;20201;-86
2023/08/24 08:47:30;;;;;;;15.85;10.20;;;;;;;-141.97;46.60;47284.59;5044791;28;20230;-86
2023/08/24 08:49:55;;;;;;;15.88;10.48;;;;;;;-141.97;47.37;47203.88;5033377;28;20174;-85
2023/08/24 08:52:21;;;;;;;14.57;10.57;;;;;;;-141.97;48.77;47288.44;5032062;28;20227;-85
2023/08/24 08:54:46;;;;;;;19.63;11.57;;;;;;;-141.97;51.36;47248.09;5023442;28;20696;-87
2023/08/24 08:57:14;;;;;;;17.17;11.48;;;;;;;-141.97;50.32;47261.53;5033346;28;20228;-85
2023/08/24 08:59:40;;;;;;;19.27;12.07;;;;;;;-141.97;49.08;47309.59;5034679;28;20186;-86
2023/08/24 09:02:13;;;;;;;15.07;11.68;;;;;;;-141.97;48.75;47211.56;5033777;28;20842;-85
2023/08/24 09:04:39;;;;;;;15.60;11.77;;;;;;;-141.97;48.58;47244.25;5045684;28;20166;-86
2023/08/24 09:07:10;;;;;;;17.52;12.30;;;;;;;-141.97;49.15;47261.53;5036109;28;20274;-84
2023/08/24 09:09:36;;;;;;;17.45;12.55;;;;;;;-141.97;47.60;47226.94;5031565;28;20205;-83
2023/08/24 09:12:03;;;;;;;17.33;12.38;;;;;;;-141.97;47.63;47257.69;5031614;28;20518;-84
2023/08/24 09:14:28;;;;;;;15.13;12.13;;;;;;;-141.97;47.06;47246.16;5031759;28;20166;-84
2023/08/24 09:16:53;;;;;;;17.75;11.95;;;;;;;-141.97;47.62;47301.91;5031090;28;20499;-83
2023/08/24 09:19:19;;;;;;;16.80;11.63;;;;;;;-141.97;46.80;47250.00;5031057;28;20208;-84
2023/08/24 09:21:44;;;;;;;18.77;11.68;;;;;;;-141.97;47.29;47290.38;5031566;28;20192;-83
2023/08/24 09:24:10;;;;;;;15.57;11.63;;;;;;;-141.97;47.14;47251.94;5029698;28;20271;-83
2023/08/24 09:26:42;;;;;;;15.68;11.40;;;;;;;-141.97;47.50;47240.41;5030955;28;20201;-84
2023/08/24 09:29:13;;;;;;;11.75;10.18;;;;;;;-141.97;45.36;47246.16;5031216;28;20157;-82
2023/08/24 09:31:38;;;;;;;12.65;10.02;;;;;;;-141.97;42.13;47190.44;5031102;28;20256;-83
2023/08/24 09:34:05;;;;;;;12.35;9.77;;;;;;;-141.97;42.40;47209.66;5031040;28;20304;-84
2023/08/24 09:36:34;;;;;;;13.52;10.20;;;;;;;-141.97;42.21;47275.00;5031287;28;20166;-84
2023/08/24 09:39:06;;;;;;;13.57;10.45;;;;;;;-141.97;43.06;47267.31;5032913;28;20174;-85
2023/08/24 09:41:39;;;;;;;14.82;10.52;;;;;;;-141.97;45.38;47311.50;5031432;28;20225;-83
2023/08/24 09:44:05;;;;;;;15.13;10.57;;;;;;;-141.97;45.61;47251.94;5031732;28;20598;-84
2023/08/24 09:46:30;;;;;;;18.50;12.05;;;;;;;-141.97;45.97;47284.59;5030619;28;20664;-84
2023/08/24 09:48:58;;;;;;;17.60;12.32;;;;;;;-141.97;44.85;47299.97;5031066;28;20166;-83
2023/08/24 09:51:26;;;;;;;19.38;12.68;;;;;;;-141.97;44.59;47248.09;5031782;28;20158;-85
2023/08/24 09:53:52;;;;;;;18.42;11.52;;;;;;;-141.97;43.84;47299.97;5034923;28;20711;-86
2023/08/24 09:56:21;;;;;;;21.60;11.95;;;;;;;-141.97;44.65;47265.38;5025709;28;20244;-85
2023/08/24 09:58:49;;;;;;;18.45;12.77;;;;;;;-141.97;44.48;47269.22;5036041;28;20516;-84
2023/08/24 10:01:16;;;;;;;17.15;12.35;;;;;;;-141.97;44.02;47232.72;5033266;28;20162;-84
2023/08/24 10:03:43;;;;;;;15.95;12.57;;;;;;;-141.97;44.41;47261.53;5031248;28;20249;-84
2023/08/24 10:06:10;;;;;;;16.13;12.23;;;;;;;-141.97;43.84;47292.28;5030844;28;20312;-84
2023/08/24 10:08:39;;;;;;;12.45;11.07;;;;;;;-141.97;42.55;47211.56;5031217;28;20166;-82
2023/08/24 10:11:05;;;;;;;15.70;12.18;;;;;;;-141.97;42.99;47280.75;5030972;28;20165;-83
2023/08/24 10:13:37;;;;;;;17.50;12.57;;;;;;;-141.97;43.78;47265.38;5030756;28;20898;-83
2023/08/24 10:16:05;;;;;;;14.73;12.57;;;;;;;-141.97;43.54;47276.91;5030338;28;20256;-82
2023/08/24 10:18:30;;;;;;;15.57;13.00;;;;;;;-141.97;43.18;47232.72;5030784;28;20534;-84
2023/08/24 10:20:57;;;;;;;16.35;12.00;;;;;;;-141.97;41.36;47213.50;5030562;28;20177;-84
2023/08/24 10:23:23;;;;;;;15.05;12.05;;;;;;;-141.97;41.75;47230.78;5030824;28;20162;-84
2023/08/24 10:25:51;;;;;;;14.73;11.50;;;;;;;-141.97;40.32;47236.56;5030393;28;20205;-84
2023/08/24 10:28:19;;;;;;;15.00;11.55;;;;;;;-141.97;40.21;47244.25;5031193;28;20162;-84
2023/08/24 10:30:46;;;;;;;14.23;11.15;;;;;;;-141.97;41.10;47253.84;5017121;28;20273;-84
2023/08/24 10:33:13;;;;;;;13.18;11.77;;;;;;;-141.97;40.82;47248.09;5011354;28;20173;-83
2023/08/24 10:35:40;;;;;;;13.02;11.27;;;;;;;-141.97;40.83;47219.25;5011464;28;20173;-84
2023/08/24 10:38:05;;;;;;;13.38;11.77;;;;;;;-141.97;40.44;47188.50;5030125;28;20185;-83
2023/08/24 10:40:38;;;;;;;14.95;11.85;;;;;;;-141.97;39.34;47240.41;5035785;28;20225;-81
2023/08/24 10:43:05;;;;;;;14.35;10.75;;;;;;;-141.97;39.54;47226.94;5030848;28;20623;-83
2023/08/24 10:45:56;;;;;;;12.95;10.98;;;;;;;-141.97;40.69;47280.75;5042914;28;20193;-79
2023/08/24 10:48:23;;;;;;;11.68;10.48;;;;;;;-141.97;40.46;47261.53;5041958;28;20245;-82
2023/08/24 10:51:13;;;;;;;12.65;10.68;;;;;;;-141.97;39.74;47269.22;5031770;28;20663;-83
2023/08/24 10:53:59;;;;;;;11.75;10.32;;;;;;;-141.97;39.79;47240.41;5030289;28;20237;-82
2023/08/24 10:56:32;;;;;;;11.57;10.38;;;;;;;-141.97;38.61;47232.72;5029594;28;20194;-83
2023/08/24 10:59:12;;;;;;;14.50;10.25;;;;;;;-141.97;38.81;47255.78;5030214;28;20703;-82
2023/08/24 11:01:39;;;;;;;11.48;10.27;;;;;;;-141.97;38.33;47207.72;5030128;28;20268;-82